sensor_id;sensor_type;location;lat;lon;timestamp;P1;durP1;ratioP1;P2;durP2;ratioP2
78834;SDS011;68187;42.682;23.352;2023-04-03T00:02:20;14.25;;;8.23;;
78834;SDS011;68187;42.682;23.352;2023-04-03T00:04:47;16.98;;;7.65;;
78834;SDS011;68187;42.682;23.352;2023-04-03T00:07:14;18.95;;;8.70;;
78834;SDS011;68187;42.682;23.352;2023-04-03T00:09:41;13.98;;;8.15;;
78834;SDS011;68187;42.682;23.352;2023-04-03T00:12:09;17.05;;;8.25;;
78834;SDS011;68187;42.682;23.352;2023-04-03T00:14:36;15.63;;;7.78;;
78834;SDS011;68187;42.682;23.352;2023-04-03T00:17:02;15.77;;;7.30;;
78834;SDS011;68187;42.682;23.352;2023-04-03T00:19:29;16.45;;;8.45;;
78834;SDS011;68187;42.682;23.352;2023-04-03T00:21:56;15.80;;;6.93;;
78834;SDS011;68187;42.682;23.352;2023-04-03T00:24:23;14.05;;;7.20;;
78834;SDS011;68187;42.682;23.352;2023-04-03T00:26:50;14.50;;;8.10;;
78834;SDS011;68187;42.682;23.352;2023-04-03T00:29:18;14.88;;;7.55;;
78834;SDS011;68187;42.682;23.352;2023-04-03T00:31:45;13.52;;;6.32;;
78834;SDS011;68187;42.682;23.352;2023-04-03T00:34:11;11.05;;;6.63;;
78834;SDS011;68187;42.682;23.352;2023-04-03T00:36:38;13.05;;;6.78;;
78834;SDS011;68187;42.682;23.352;2023-04-03T00:39:05;13.07;;;6.90;;
78834;SDS011;68187;42.682;23.352;2023-04-03T00:41:31;13.02;;;6.10;;
78834;SDS011;68187;42.682;23.352;2023-04-03T00:43:58;11.50;;;5.68;;
78834;SDS011;68187;42.682;23.352;2023-04-03T00:46:26;18.02;;;5.60;;
78834;SDS011;68187;42.682;23.352;2023-04-03T00:48:53;13.45;;;6.30;;
78834;SDS011;68187;42.682;23.352;2023-04-03T00:51:22;12.35;;;6.03;;
78834;SDS011;68187;42.682;23.352;2023-04-03T00:53:52;12.68;;;5.80;;
78834;SDS011;68187;42.682;23.352;2023-04-03T00:56:22;15.98;;;5.68;;
78834;SDS011;68187;42.682;23.352;2023-04-03T00:58:51;8.70;;;5.65;;
78834;SDS011;68187;42.682;23.352;2023-04-03T01:01:24;15.55;;;6.72;;
78834;SDS011;68187;42.682;23.352;2023-04-03T01:03:53;11.60;;;5.32;;
78834;SDS011;68187;42.682;23.352;2023-04-03T01:06:21;12.10;;;5.70;;
78834;SDS011;68187;42.682;23.352;2023-04-03T01:08:52;10.95;;;6.07;;
78834;SDS011;68187;42.682;23.352;2023-04-03T01:11:19;12.10;;;5.93;;
78834;SDS011;68187;42.682;23.352;2023-04-03T01:13:46;16.85;;;5.63;;
78834;SDS011;68187;42.682;23.352;2023-04-03T01:16:14;11.18;;;5.50;;
78834;SDS011;68187;42.682;23.352;2023-04-03T01:18:41;12.00;;;5.57;;
78834;SDS011;68187;42.682;23.352;2023-04-03T01:21:36;12.57;;;5.63;;
78834;SDS011;68187;42.682;23.352;2023-04-03T01:24:22;9.95;;;5.95;;
78834;SDS011;68187;42.682;23.352;2023-04-03T01:26:58;11.70;;;5.20;;
78834;SDS011;68187;42.682;23.352;2023-04-03T01:29:25;10.07;;;4.85;;
78834;SDS011;68187;42.682;23.352;2023-04-03T01:31:54;12.38;;;5.30;;
78834;SDS011;68187;42.682;23.352;2023-04-03T01:34:21;12.20;;;6.30;;
78834;SDS011;68187;42.682;23.352;2023-04-03T01:36:48;10.93;;;5.32;;
78834;SDS011;68187;42.682;23.352;2023-04-03T01:39:16;10.18;;;5.93;;
78834;SDS011;68187;42.682;23.352;2023-04-03T01:41:43;12.38;;;5.45;;
78834;SDS011;68187;42.682;23.352;2023-04-03T01:44:10;10.50;;;5.38;;
78834;SDS011;68187;42.682;23.352;2023-04-03T01:46:37;12.23;;;5.95;;
78834;SDS011;68187;42.682;23.352;2023-04-03T01:49:05;12.70;;;6.05;;
78834;SDS011;68187;42.682;23.352;2023-04-03T01:51:32;11.60;;;5.78;;
78834;SDS011;68187;42.682;23.352;2023-04-03T01:53:59;11.98;;;6.40;;
78834;SDS011;68187;42.682;23.352;2023-04-03T01:56:26;14.70;;;6.72;;
78834;SDS011;68187;42.682;23.352;2023-04-03T01:58:52;10.05;;;5.82;;
78834;SDS011;68187;42.682;23.352;2023-04-03T02:01:19;13.52;;;5.85;;
78834;SDS011;68187;42.682;23.352;2023-04-03T02:03:46;9.63;;;5.95;;
78834;SDS011;68187;42.682;23.352;2023-04-03T02:06:14;11.95;;;5.30;;
78834;SDS011;68187;42.682;23.352;2023-04-03T02:08:41;10.57;;;5.38;;
78834;SDS011;68187;42.682;23.352;2023-04-03T02:11:07;10.70;;;5.20;;
78834;SDS011;68187;42.682;23.352;2023-04-03T02:13:34;9.48;;;5.25;;
78834;SDS011;68187;42.682;23.352;2023-04-03T02:16:05;8.43;;;4.72;;
78834;SDS011;68187;42.682;23.352;2023-04-03T02:18:33;9.10;;;4.65;;
78834;SDS011;68187;42.682;23.352;2023-04-03T02:20:59;9.32;;;5.13;;
78834;SDS011;68187;42.682;23.352;2023-04-03T02:23:27;9.60;;;4.50;;
78834;SDS011;68187;42.682;23.352;2023-04-03T02:26:02;10.57;;;5.25;;
78834;SDS011;68187;42.682;23.352;2023-04-03T02:28:30;8.52;;;4.47;;
78834;SDS011;68187;42.682;23.352;2023-04-03T02:30:57;9.90;;;4.80;;
78834;SDS011;68187;42.682;23.352;2023-04-03T02:33:24;11.85;;;6.65;;
78834;SDS011;68187;42.682;23.352;2023-04-03T02:35:52;8.70;;;4.28;;
78834;SDS011;68187;42.682;23.352;2023-04-03T02:38:20;10.02;;;4.78;;
78834;SDS011;68187;42.682;23.352;2023-04-03T02:40:48;10.27;;;5.50;;
78834;SDS011;68187;42.682;23.352;2023-04-03T02:43:16;10.38;;;5.25;;
78834;SDS011;68187;42.682;23.352;2023-04-03T02:45:43;10.50;;;4.65;;
78834;SDS011;68187;42.682;23.352;2023-04-03T02:48:09;9.68;;;5.50;;
78834;SDS011;68187;42.682;23.352;2023-04-03T02:50:37;14.93;;;6.55;;
78834;SDS011;68187;42.682;23.352;2023-04-03T02:53:03;9.65;;;6.07;;
78834;SDS011;68187;42.682;23.352;2023-04-03T02:55:30;9.90;;;4.85;;
78834;SDS011;68187;42.682;23.352;2023-04-03T02:57:58;12.15;;;6.22;;
78834;SDS011;68187;42.682;23.352;2023-04-03T03:00:25;12.18;;;5.38;;
78834;SDS011;68187;42.682;23.352;2023-04-03T03:02:52;13.65;;;5.88;;
78834;SDS011;68187;42.682;23.352;2023-04-03T03:05:18;13.40;;;5.70;;
78834;SDS011;68187;42.682;23.352;2023-04-03T03:07:45;14.07;;;7.07;;
78834;SDS011;68187;42.682;23.352;2023-04-03T03:10:12;12.77;;;7.60;;
78834;SDS011;68187;42.682;23.352;2023-04-03T03:12:39;13.52;;;7.25;;
78834;SDS011;68187;42.682;23.352;2023-04-03T03:15:07;12.82;;;8.40;;
78834;SDS011;68187;42.682;23.352;2023-04-03T03:17:35;13.70;;;6.63;;
78834;SDS011;68187;42.682;23.352;2023-04-03T03:20:02;14.48;;;7.35;;
78834;SDS011;68187;42.682;23.352;2023-04-03T03:22:29;13.38;;;6.82;;
78834;SDS011;68187;42.682;23.352;2023-04-03T03:24:56;12.38;;;7.60;;
78834;SDS011;68187;42.682;23.352;2023-04-03T03:27:22;15.23;;;6.70;;
78834;SDS011;68187;42.682;23.352;2023-04-03T03:29:50;16.48;;;7.50;;
78834;SDS011;68187;42.682;23.352;2023-04-03T03:32:18;13.85;;;6.72;;
78834;SDS011;68187;42.682;23.352;2023-04-03T03:34:44;15.63;;;8.73;;
78834;SDS011;68187;42.682;23.352;2023-04-03T03:37:11;13.25;;;8.68;;
78834;SDS011;68187;42.682;23.352;2023-04-03T03:39:38;19.73;;;8.23;;
78834;SDS011;68187;42.682;23.352;2023-04-03T03:42:05;18.73;;;10.13;;
78834;SDS011;68187;42.682;23.352;2023-04-03T03:44:31;17.13;;;9.77;;
78834;SDS011;68187;42.682;23.352;2023-04-03T03:46:58;15.43;;;8.75;;
78834;SDS011;68187;42.682;23.352;2023-04-03T03:49:27;15.52;;;8.27;;
78834;SDS011;68187;42.682;23.352;2023-04-03T03:51:53;12.23;;;7.50;;
78834;SDS011;68187;42.682;23.352;2023-04-03T03:54:21;13.40;;;9.02;;
78834;SDS011;68187;42.682;23.352;2023-04-03T03:56:47;13.27;;;8.25;;
78834;SDS011;68187;42.682;23.352;2023-04-03T03:59:14;16.98;;;7.85;;
78834;SDS011;68187;42.682;23.352;2023-04-03T04:01:41;12.10;;;7.13;;
78834;SDS011;68187;42.682;23.352;2023-04-03T04:04:08;13.13;;;7.45;;
78834;SDS011;68187;42.682;23.352;2023-04-03T04:06:36;12.90;;;7.32;;
78834;SDS011;68187;42.682;23.352;2023-04-03T04:09:03;14.77;;;7.60;;
78834;SDS011;68187;42.682;23.352;2023-04-03T04:11:30;13.80;;;8.10;;
78834;SDS011;68187;42.682;23.352;2023-04-03T04:13:58;15.50;;;7.28;;
78834;SDS011;68187;42.682;23.352;2023-04-03T04:16:25;16.55;;;9.20;;
78834;SDS011;68187;42.682;23.352;2023-04-03T04:18:51;14.55;;;7.60;;
78834;SDS011;68187;42.682;23.352;2023-04-03T04:21:18;15.40;;;8.50;;
78834;SDS011;68187;42.682;23.352;2023-04-03T04:23:46;23.83;;;8.52;;
78834;SDS011;68187;42.682;23.352;2023-04-03T04:26:13;17.33;;;8.88;;
78834;SDS011;68187;42.682;23.352;2023-04-03T04:28:40;14.32;;;8.48;;
78834;SDS011;68187;42.682;23.352;2023-04-03T04:31:06;18.50;;;11.70;;
78834;SDS011;68187;42.682;23.352;2023-04-03T04:33:33;18.17;;;7.95;;
78834;SDS011;68187;42.682;23.352;2023-04-03T04:36:00;16.65;;;7.45;;
78834;SDS011;68187;42.682;23.352;2023-04-03T04:38:27;19.73;;;8.38;;
78834;SDS011;68187;42.682;23.352;2023-04-03T04:40:55;16.75;;;7.90;;
78834;SDS011;68187;42.682;23.352;2023-04-03T04:43:22;20.95;;;9.80;;
78834;SDS011;68187;42.682;23.352;2023-04-03T04:45:49;19.75;;;9.00;;
78834;SDS011;68187;42.682;23.352;2023-04-03T04:48:26;16.98;;;8.13;;
78834;SDS011;68187;42.682;23.352;2023-04-03T04:50:53;16.13;;;8.07;;
78834;SDS011;68187;42.682;23.352;2023-04-03T04:53:20;14.02;;;8.90;;
78834;SDS011;68187;42.682;23.352;2023-04-03T04:55:47;28.23;;;9.68;;
78834;SDS011;68187;42.682;23.352;2023-04-03T04:58:15;16.80;;;8.52;;
78834;SDS011;68187;42.682;23.352;2023-04-03T05:00:42;21.13;;;9.50;;
78834;SDS011;68187;42.682;23.352;2023-04-03T05:03:08;17.25;;;8.35;;
78834;SDS011;68187;42.682;23.352;2023-04-03T05:05:35;22.20;;;8.20;;
78834;SDS011;68187;42.682;23.352;2023-04-03T05:08:02;24.58;;;9.27;;
78834;SDS011;68187;42.682;23.352;2023-04-03T05:10:29;19.65;;;8.55;;
78834;SDS011;68187;42.682;23.352;2023-04-03T05:12:56;20.38;;;10.18;;
78834;SDS011;68187;42.682;23.352;2023-04-03T05:15:24;19.85;;;8.45;;
78834;SDS011;68187;42.682;23.352;2023-04-03T05:17:51;22.90;;;9.85;;
78834;SDS011;68187;42.682;23.352;2023-04-03T05:20:18;27.85;;;9.98;;
78834;SDS011;68187;42.682;23.352;2023-04-03T05:22:44;22.25;;;10.30;;
78834;SDS011;68187;42.682;23.352;2023-04-03T05:25:11;18.13;;;10.10;;
78834;SDS011;68187;42.682;23.352;2023-04-03T05:27:38;15.65;;;8.82;;
78834;SDS011;68187;42.682;23.352;2023-04-03T05:30:05;20.48;;;10.90;;
78834;SDS011;68187;42.682;23.352;2023-04-03T05:32:34;21.17;;;10.48;;
78834;SDS011;68187;42.682;23.352;2023-04-03T05:35:00;21.65;;;10.07;;
78834;SDS011;68187;42.682;23.352;2023-04-03T05:37:27;19.27;;;9.48;;
78834;SDS011;68187;42.682;23.352;2023-04-03T05:39:54;17.30;;;8.38;;
78834;SDS011;68187;42.682;23.352;2023-04-03T05:42:21;18.60;;;10.90;;
78834;SDS011;68187;42.682;23.352;2023-04-03T05:44:47;18.38;;;11.13;;
78834;SDS011;68187;42.682;23.352;2023-04-03T05:47:15;21.55;;;10.70;;
78834;SDS011;68187;42.682;23.352;2023-04-03T05:49:43;27.23;;;11.02;;
78834;SDS011;68187;42.682;23.352;2023-04-03T05:52:11;20.42;;;11.40;;
78834;SDS011;68187;42.682;23.352;2023-04-03T05:54:46;20.23;;;11.82;;
78834;SDS011;68187;42.682;23.352;2023-04-03T05:57:14;24.83;;;11.35;;
78834;SDS011;68187;42.682;23.352;2023-04-03T05:59:41;27.80;;;12.13;;
78834;SDS011;68187;42.682;23.352;2023-04-03T06:02:09;31.50;;;14.65;;
78834;SDS011;68187;42.682;23.352;2023-04-03T06:04:37;30.73;;;15.57;;
78834;SDS011;68187;42.682;23.352;2023-04-03T06:07:06;23.50;;;15.65;;
78834;SDS011;68187;42.682;23.352;2023-04-03T06:09:36;23.75;;;14.60;;
78834;SDS011;68187;42.682;23.352;2023-04-03T06:12:03;19.33;;;11.15;;
78834;SDS011;68187;42.682;23.352;2023-04-03T06:14:30;21.60;;;11.02;;
78834;SDS011;68187;42.682;23.352;2023-04-03T06:16:56;22.60;;;12.60;;
78834;SDS011;68187;42.682;23.352;2023-04-03T06:19:24;19.02;;;11.43;;
78834;SDS011;68187;42.682;23.352;2023-04-03T06:21:51;19.48;;;11.23;;
78834;SDS011;68187;42.682;23.352;2023-04-03T06:24:19;24.73;;;12.27;;
78834;SDS011;68187;42.682;23.352;2023-04-03T06:26:49;23.92;;;14.20;;
78834;SDS011;68187;42.682;23.352;2023-04-03T06:29:17;32.42;;;15.40;;
78834;SDS011;68187;42.682;23.352;2023-04-03T06:31:44;30.27;;;15.30;;
78834;SDS011;68187;42.682;23.352;2023-04-03T06:34:11;22.88;;;15.02;;
78834;SDS011;68187;42.682;23.352;2023-04-03T06:36:39;28.83;;;15.75;;
78834;SDS011;68187;42.682;23.352;2023-04-03T06:39:06;30.05;;;15.18;;
78834;SDS011;68187;42.682;23.352;2023-04-03T06:41:36;22.38;;;12.45;;
78834;SDS011;68187;42.682;23.352;2023-04-03T06:44:03;17.65;;;11.45;;
78834;SDS011;68187;42.682;23.352;2023-04-03T06:46:30;24.58;;;13.38;;
78834;SDS011;68187;42.682;23.352;2023-04-03T06:48:56;22.70;;;15.15;;
78834;SDS011;68187;42.682;23.352;2023-04-03T06:51:24;18.98;;;12.32;;
78834;SDS011;68187;42.682;23.352;2023-04-03T06:53:53;22.52;;;13.38;;
78834;SDS011;68187;42.682;23.352;2023-04-03T06:56:21;19.75;;;13.15;;
78834;SDS011;68187;42.682;23.352;2023-04-03T06:58:50;16.88;;;13.07;;
78834;SDS011;68187;42.682;23.352;2023-04-03T07:01:19;16.55;;;11.38;;
78834;SDS011;68187;42.682;23.352;2023-04-03T07:03:47;22.45;;;11.00;;
78834;SDS011;68187;42.682;23.352;2023-04-03T07:06:15;21.48;;;10.95;;
78834;SDS011;68187;42.682;23.352;2023-04-03T07:08:42;17.15;;;10.45;;
78834;SDS011;68187;42.682;23.352;2023-04-03T07:11:10;23.63;;;10.93;;
78834;SDS011;68187;42.682;23.352;2023-04-03T07:13:38;15.38;;;9.60;;
78834;SDS011;68187;42.682;23.352;2023-04-03T07:16:07;20.38;;;12.00;;
78834;SDS011;68187;42.682;23.352;2023-04-03T07:18:34;21.27;;;11.73;;
78834;SDS011;68187;42.682;23.352;2023-04-03T07:21:02;19.52;;;11.68;;
78834;SDS011;68187;42.682;23.352;2023-04-03T07:23:29;17.15;;;10.98;;
78834;SDS011;68187;42.682;23.352;2023-04-03T07:25:56;21.27;;;11.40;;
78834;SDS011;68187;42.682;23.352;2023-04-03T07:28:23;16.80;;;11.88;;
78834;SDS011;68187;42.682;23.352;2023-04-03T07:30:51;17.75;;;10.75;;
78834;SDS011;68187;42.682;23.352;2023-04-03T07:33:22;15.88;;;10.73;;
78834;SDS011;68187;42.682;23.352;2023-04-03T07:35:49;17.08;;;10.00;;
78834;SDS011;68187;42.682;23.352;2023-04-03T07:38:16;16.67;;;9.00;;
78834;SDS011;68187;42.682;23.352;2023-04-03T07:40:45;14.10;;;9.82;;
78834;SDS011;68187;42.682;23.352;2023-04-03T07:43:12;17.80;;;9.27;;
78834;SDS011;68187;42.682;23.352;2023-04-03T07:45:39;14.15;;;9.75;;
78834;SDS011;68187;42.682;23.352;2023-04-03T07:48:06;17.30;;;10.57;;
78834;SDS011;68187;42.682;23.352;2023-04-03T07:50:34;23.58;;;14.77;;
78834;SDS011;68187;42.682;23.352;2023-04-03T07:53:01;34.75;;;16.77;;
78834;SDS011;68187;42.682;23.352;2023-04-03T07:55:28;25.02;;;17.30;;
78834;SDS011;68187;42.682;23.352;2023-04-03T07:57:55;28.15;;;17.48;;
78834;SDS011;68187;42.682;23.352;2023-04-03T08:00:22;29.85;;;17.50;;
78834;SDS011;68187;42.682;23.352;2023-04-03T08:02:49;27.80;;;17.42;;
78834;SDS011;68187;42.682;23.352;2023-04-03T08:05:16;30.15;;;18.63;;
78834;SDS011;68187;42.682;23.352;2023-04-03T08:07:45;25.35;;;16.08;;
78834;SDS011;68187;42.682;23.352;2023-04-03T08:10:12;27.90;;;17.67;;
78834;SDS011;68187;42.682;23.352;2023-04-03T08:12:40;27.17;;;15.82;;
78834;SDS011;68187;42.682;23.352;2023-04-03T08:15:07;24.13;;;16.70;;
78834;SDS011;68187;42.682;23.352;2023-04-03T08:17:35;25.05;;;16.33;;
78834;SDS011;68187;42.682;23.352;2023-04-03T08:20:02;26.35;;;15.85;;
78834;SDS011;68187;42.682;23.352;2023-04-03T08:22:30;26.63;;;16.20;;
78834;SDS011;68187;42.682;23.352;2023-04-03T08:24:58;22.85;;;15.27;;
78834;SDS011;68187;42.682;23.352;2023-04-03T08:27:24;30.73;;;14.68;;
78834;SDS011;68187;42.682;23.352;2023-04-03T08:29:52;25.35;;;15.88;;
78834;SDS011;68187;42.682;23.352;2023-04-03T08:32:19;29.90;;;16.10;;
78834;SDS011;68187;42.682;23.352;2023-04-03T08:34:45;26.08;;;13.30;;
78834;SDS011;68187;42.682;23.352;2023-04-03T08:37:12;23.48;;;16.00;;
78834;SDS011;68187;42.682;23.352;2023-04-03T08:39:41;25.33;;;16.13;;
78834;SDS011;68187;42.682;23.352;2023-04-03T08:42:13;27.15;;;14.73;;
78834;SDS011;68187;42.682;23.352;2023-04-03T08:44:46;21.55;;;14.45;;
78834;SDS011;68187;42.682;23.352;2023-04-03T08:47:18;22.17;;;14.50;;
78834;SDS011;68187;42.682;23.352;2023-04-03T08:49:51;19.67;;;14.65;;
78834;SDS011;68187;42.682;23.352;2023-04-03T08:52:23;30.27;;;15.85;;
78834;SDS011;68187;42.682;23.352;2023-04-03T08:54:58;22.73;;;14.50;;
78834;SDS011;68187;42.682;23.352;2023-04-03T08:57:30;25.63;;;15.88;;
78834;SDS011;68187;42.682;23.352;2023-04-03T09:00:00;21.85;;;14.52;;
78834;SDS011;68187;42.682;23.352;2023-04-03T09:02:33;18.40;;;12.05;;
78834;SDS011;68187;42.682;23.352;2023-04-03T09:05:08;21.42;;;12.60;;
78834;SDS011;68187;42.682;23.352;2023-04-03T09:07:39;18.45;;;11.65;;
78834;SDS011;68187;42.682;23.352;2023-04-03T09:10:09;26.33;;;13.65;;
78834;SDS011;68187;42.682;23.352;2023-04-03T09:12:41;19.75;;;12.40;;
78834;SDS011;68187;42.682;23.352;2023-04-03T09:15:15;23.27;;;10.55;;
78834;SDS011;68187;42.682;23.352;2023-04-03T09:17:47;20.00;;;10.38;;
78834;SDS011;68187;42.682;23.352;2023-04-03T09:20:24;17.63;;;10.23;;
78834;SDS011;68187;42.682;23.352;2023-04-03T09:22:56;19.45;;;11.43;;
78834;SDS011;68187;42.682;23.352;2023-04-03T09:25:24;19.77;;;10.65;;
78834;SDS011;68187;42.682;23.352;2023-04-03T09:27:54;18.90;;;12.57;;
78834;SDS011;68187;42.682;23.352;2023-04-03T09:30:23;19.15;;;11.57;;
78834;SDS011;68187;42.682;23.352;2023-04-03T09:32:51;16.90;;;10.43;;
78834;SDS011;68187;42.682;23.352;2023-04-03T09:35:21;22.38;;;11.10;;
78834;SDS011;68187;42.682;23.352;2023-04-03T09:37:51;15.55;;;11.07;;
78834;SDS011;68187;42.682;23.352;2023-04-03T09:40:29;20.13;;;11.40;;
78834;SDS011;68187;42.682;23.352;2023-04-03T09:43:01;22.30;;;12.45;;
78834;SDS011;68187;42.682;23.352;2023-04-03T09:45:46;19.30;;;11.00;;
78834;SDS011;68187;42.682;23.352;2023-04-03T09:48:15;18.77;;;11.25;;
78834;SDS011;68187;42.682;23.352;2023-04-03T09:50:53;26.67;;;13.02;;
78834;SDS011;68187;42.682;23.352;2023-04-03T09:53:28;21.60;;;11.88;;
78834;SDS011;68187;42.682;23.352;2023-04-03T09:55:57;19.00;;;11.88;;
78834;SDS011;68187;42.682;23.352;2023-04-03T09:58:27;19.95;;;12.52;;
78834;SDS011;68187;42.682;23.352;2023-04-03T10:00:56;26.52;;;12.30;;
78834;SDS011;68187;42.682;23.352;2023-04-03T10:03:25;19.75;;;12.73;;
78834;SDS011;68187;42.682;23.352;2023-04-03T10:05:55;16.38;;;10.60;;
78834;SDS011;68187;42.682;23.352;2023-04-03T10:08:24;16.23;;;9.68;;
78834;SDS011;68187;42.682;23.352;2023-04-03T10:11:07;13.90;;;8.35;;
78834;SDS011;68187;42.682;23.352;2023-04-03T10:13:37;14.80;;;9.93;;
78834;SDS011;68187;42.682;23.352;2023-04-03T10:16:17;15.05;;;8.93;;
78834;SDS011;68187;42.682;23.352;2023-04-03T10:18:48;17.60;;;8.43;;
78834;SDS011;68187;42.682;23.352;2023-04-03T10:21:25;15.82;;;9.13;;
78834;SDS011;68187;42.682;23.352;2023-04-03T10:24:00;20.70;;;8.52;;
78834;SDS011;68187;42.682;23.352;2023-04-03T10:26:37;19.38;;;8.43;;
78834;SDS011;68187;42.682;23.352;2023-04-03T10:29:15;16.10;;;8.98;;
78834;SDS011;68187;42.682;23.352;2023-04-03T10:31:52;21.67;;;8.13;;
78834;SDS011;68187;42.682;23.352;2023-04-03T10:34:28;18.95;;;9.68;;
78834;SDS011;68187;42.682;23.352;2023-04-03T10:36:59;15.40;;;8.02;;
78834;SDS011;68187;42.682;23.352;2023-04-03T10:39:34;18.90;;;8.65;;
78834;SDS011;68187;42.682;23.352;2023-04-03T10:42:10;14.38;;;7.18;;
78834;SDS011;68187;42.682;23.352;2023-04-03T10:44:47;12.05;;;6.90;;
78834;SDS011;68187;42.682;23.352;2023-04-03T10:47:24;13.57;;;7.55;;
78834;SDS011;68187;42.682;23.352;2023-04-03T10:49:56;20.15;;;7.43;;
78834;SDS011;68187;42.682;23.352;2023-04-03T10:52:29;16.00;;;6.07;;
78834;SDS011;68187;42.682;23.352;2023-04-03T10:55:05;10.10;;;5.60;;
78834;SDS011;68187;42.682;23.352;2023-04-03T10:57:45;14.98;;;6.57;;
78834;SDS011;68187;42.682;23.352;2023-04-03T11:00:16;13.73;;;5.63;;
78834;SDS011;68187;42.682;23.352;2023-04-03T11:02:48;10.63;;;5.32;;
78834;SDS011;68187;42.682;23.352;2023-04-03T11:05:21;10.13;;;5.05;;
78834;SDS011;68187;42.682;23.352;2023-04-03T11:07:56;8.88;;;4.35;;
78834;SDS011;68187;42.682;23.352;2023-04-03T11:12:58;11.98;;;3.50;;
78834;SDS011;68187;42.682;23.352;2023-04-03T11:15:34;7.88;;;3.35;;
78834;SDS011;68187;42.682;23.352;2023-04-03T11:18:02;7.05;;;3.45;;
78834;SDS011;68187;42.682;23.352;2023-04-03T11:20:32;9.60;;;3.97;;
78834;SDS011;68187;42.682;23.352;2023-04-03T11:23:03;5.72;;;2.85;;
78834;SDS011;68187;42.682;23.352;2023-04-03T11:25:32;6.13;;;3.05;;
78834;SDS011;68187;42.682;23.352;2023-04-03T11:28:01;7.88;;;2.92;;
78834;SDS011;68187;42.682;23.352;2023-04-03T11:30:30;4.38;;;2.58;;
78834;SDS011;68187;42.682;23.352;2023-04-03T11:33:21;6.45;;;3.13;;
78834;SDS011;68187;42.682;23.352;2023-04-03T11:35:59;5.82;;;2.53;;
78834;SDS011;68187;42.682;23.352;2023-04-03T11:38:31;9.27;;;2.97;;
78834;SDS011;68187;42.682;23.352;2023-04-03T11:41:02;6.43;;;2.97;;
78834;SDS011;68187;42.682;23.352;2023-04-03T11:43:31;6.72;;;3.10;;
78834;SDS011;68187;42.682;23.352;2023-04-03T11:46:01;5.40;;;3.00;;
78834;SDS011;68187;42.682;23.352;2023-04-03T11:48:42;5.78;;;3.55;;
78834;SDS011;68187;42.682;23.352;2023-04-03T12:09:25;5.25;;;2.10;;
78834;SDS011;68187;42.682;23.352;2023-04-03T12:12:01;4.97;;;2.60;;
78834;SDS011;68187;42.682;23.352;2023-04-03T12:14:50;5.50;;;2.35;;
78834;SDS011;68187;42.682;23.352;2023-04-03T12:17:20;4.65;;;2.00;;
78834;SDS011;68187;42.682;23.352;2023-04-03T12:19:50;6.57;;;2.90;;
78834;SDS011;68187;42.682;23.352;2023-04-03T12:22:18;5.10;;;2.65;;
78834;SDS011;68187;42.682;23.352;2023-04-03T12:24:47;5.55;;;2.38;;
78834;SDS011;68187;42.682;23.352;2023-04-03T12:27:26;5.63;;;3.47;;
78834;SDS011;68187;42.682;23.352;2023-04-03T12:30:12;6.88;;;3.67;;
78834;SDS011;68187;42.682;23.352;2023-04-03T12:32:56;6.50;;;3.47;;
78834;SDS011;68187;42.682;23.352;2023-04-03T12:35:31;7.03;;;3.40;;
78834;SDS011;68187;42.682;23.352;2023-04-03T12:41:02;6.00;;;3.13;;
78834;SDS011;68187;42.682;23.352;2023-04-03T12:43:46;9.98;;;4.00;;
78834;SDS011;68187;42.682;23.352;2023-04-03T12:46:28;5.78;;;3.00;;
78834;SDS011;68187;42.682;23.352;2023-04-03T12:49:05;5.50;;;2.90;;
78834;SDS011;68187;42.682;23.352;2023-04-03T12:51:44;6.03;;;3.30;;
78834;SDS011;68187;42.682;23.352;2023-04-03T12:54:15;8.52;;;4.30;;
78834;SDS011;68187;42.682;23.352;2023-04-03T12:59:15;7.18;;;4.43;;
78834;SDS011;68187;42.682;23.352;2023-04-03T13:01:43;7.80;;;4.53;;
78834;SDS011;68187;42.682;23.352;2023-04-03T13:04:10;7.78;;;4.28;;
78834;SDS011;68187;42.682;23.352;2023-04-03T13:06:39;7.78;;;4.78;;
78834;SDS011;68187;42.682;23.352;2023-04-03T13:09:15;7.82;;;4.95;;
78834;SDS011;68187;42.682;23.352;2023-04-03T13:11:48;8.63;;;4.35;;
78834;SDS011;68187;42.682;23.352;2023-04-03T13:14:18;9.63;;;5.13;;
78834;SDS011;68187;42.682;23.352;2023-04-03T13:16:53;9.25;;;5.75;;
78834;SDS011;68187;42.682;23.352;2023-04-03T13:19:22;9.23;;;6.40;;
78834;SDS011;68187;42.682;23.352;2023-04-03T13:21:50;9.48;;;5.68;;
78834;SDS011;68187;42.682;23.352;2023-04-03T13:24:25;9.70;;;5.63;;
78834;SDS011;68187;42.682;23.352;2023-04-03T13:26:54;9.43;;;4.88;;
78834;SDS011;68187;42.682;23.352;2023-04-03T13:29:23;8.48;;;5.78;;
78834;SDS011;68187;42.682;23.352;2023-04-03T13:31:53;9.40;;;5.43;;
78834;SDS011;68187;42.682;23.352;2023-04-03T13:34:22;11.85;;;5.85;;
78834;SDS011;68187;42.682;23.352;2023-04-03T13:36:55;10.13;;;5.68;;
78834;SDS011;68187;42.682;23.352;2023-04-03T13:39:27;10.75;;;6.80;;
78834;SDS011;68187;42.682;23.352;2023-04-03T13:41:56;9.10;;;4.70;;
78834;SDS011;68187;42.682;23.352;2023-04-03T13:44:28;8.43;;;4.57;;
78834;SDS011;68187;42.682;23.352;2023-04-03T13:46:57;7.00;;;5.38;;
78834;SDS011;68187;42.682;23.352;2023-04-03T13:49:28;9.57;;;5.15;;
78834;SDS011;68187;42.682;23.352;2023-04-03T13:51:58;7.72;;;5.15;;
78834;SDS011;68187;42.682;23.352;2023-04-03T13:54:29;10.40;;;6.78;;
78834;SDS011;68187;42.682;23.352;2023-04-03T13:56:58;9.48;;;6.00;;
78834;SDS011;68187;42.682;23.352;2023-04-03T13:59:27;9.25;;;6.20;;
78834;SDS011;68187;42.682;23.352;2023-04-03T14:02:09;10.35;;;6.13;;
78834;SDS011;68187;42.682;23.352;2023-04-03T14:04:48;13.80;;;5.63;;
78834;SDS011;68187;42.682;23.352;2023-04-03T14:09:47;10.82;;;6.40;;
78834;SDS011;68187;42.682;23.352;2023-04-03T14:12:17;11.02;;;7.25;;
78834;SDS011;68187;42.682;23.352;2023-04-03T14:14:50;9.02;;;7.53;;
78834;SDS011;68187;42.682;23.352;2023-04-03T14:17:18;12.68;;;7.13;;
78834;SDS011;68187;42.682;23.352;2023-04-03T14:19:47;12.35;;;7.15;;
78834;SDS011;68187;42.682;23.352;2023-04-03T14:22:15;12.77;;;8.10;;
78834;SDS011;68187;42.682;23.352;2023-04-03T14:24:44;11.40;;;6.97;;
78834;SDS011;68187;42.682;23.352;2023-04-03T14:27:16;12.52;;;6.97;;
78834;SDS011;68187;42.682;23.352;2023-04-03T14:29:45;10.65;;;6.53;;
78834;SDS011;68187;42.682;23.352;2023-04-03T14:32:12;10.15;;;5.97;;
78834;SDS011;68187;42.682;23.352;2023-04-03T14:34:40;9.57;;;6.20;;
78834;SDS011;68187;42.682;23.352;2023-04-03T14:37:09;9.55;;;5.07;;
78834;SDS011;68187;42.682;23.352;2023-04-03T14:39:37;10.57;;;6.25;;
78834;SDS011;68187;42.682;23.352;2023-04-03T14:42:04;7.10;;;5.07;;
78834;SDS011;68187;42.682;23.352;2023-04-03T14:44:33;9.02;;;5.75;;
78834;SDS011;68187;42.682;23.352;2023-04-03T14:47:00;8.65;;;5.30;;
78834;SDS011;68187;42.682;23.352;2023-04-03T14:49:27;6.90;;;4.35;;
78834;SDS011;68187;42.682;23.352;2023-04-03T14:51:55;8.27;;;4.15;;
78834;SDS011;68187;42.682;23.352;2023-04-03T14:54:22;6.75;;;4.55;;
78834;SDS011;68187;42.682;23.352;2023-04-03T14:56:52;6.38;;;4.03;;
78834;SDS011;68187;42.682;23.352;2023-04-03T14:59:20;5.75;;;3.60;;
78834;SDS011;68187;42.682;23.352;2023-04-03T15:01:49;4.53;;;2.92;;
78834;SDS011;68187;42.682;23.352;2023-04-03T15:04:16;5.45;;;3.53;;